createdAt,value
2023-05-08T00:00:15.174Z,4.27
2023-05-08T00:02:44.065Z,4.20
2023-05-08T00:05:12.959Z,4.10
2023-05-08T00:07:43.161Z,4.27
2023-05-08T00:10:12.747Z,3.87
2023-05-08T00:12:41.346Z,4.20
2023-05-08T00:15:11.212Z,3.70
2023-05-08T00:17:39.739Z,4.10
2023-05-08T00:20:10.073Z,4.13
2023-05-08T00:22:38.878Z,4.33
2023-05-08T00:25:09.661Z,4.30
2023-05-08T00:27:38.183Z,4.23
2023-05-08T00:30:08.773Z,4.03
2023-05-08T00:32:37.191Z,3.70
2023-05-08T00:35:06.527Z,4.03
2023-05-08T00:37:35.201Z,4.10
2023-05-08T00:40:04.649Z,3.97
2023-05-08T00:42:34.815Z,4.23
2023-05-08T00:45:03.551Z,3.80
2023-05-08T00:47:32.947Z,3.60
2023-05-08T00:50:01.867Z,4.37
2023-05-08T00:52:33.075Z,3.73
2023-05-08T00:55:02.158Z,4.60
2023-05-08T00:57:35.821Z,4.63
2023-05-08T01:00:07.734Z,3.73
2023-05-08T01:02:36.977Z,3.90
2023-05-08T01:05:06.359Z,3.63
2023-05-08T01:07:35.015Z,4.20
2023-05-08T01:10:03.786Z,4.03
2023-05-08T01:12:39.167Z,4.33
2023-05-08T01:15:11.213Z,4.00
2023-05-08T01:18:02.370Z,4.27
2023-05-08T01:20:41.279Z,4.03
2023-05-08T01:23:39.864Z,4.70
2023-05-08T01:26:45.368Z,5.00
2023-05-08T01:30:14.127Z,3.93
2023-05-08T01:32:47.535Z,4.37
2023-05-08T01:35:22.241Z,4.43
2023-05-08T01:37:54.256Z,4.33
2023-05-08T01:40:29.980Z,3.90
2023-05-08T01:43:07.650Z,5.03
2023-05-08T01:45:40.609Z,4.43
2023-05-08T01:48:13.364Z,4.60
2023-05-08T01:50:46.693Z,4.83
2023-05-08T01:53:21.586Z,4.90
2023-05-08T01:55:52.519Z,4.33
2023-05-08T01:58:22.085Z,4.60
2023-05-08T02:00:51.578Z,4.87
2023-05-08T02:03:22.311Z,4.93
2023-05-08T02:05:52.433Z,4.20
2023-05-08T02:08:23.070Z,4.40
2023-05-08T02:10:52.747Z,4.47
2023-05-08T02:13:23.701Z,4.43
2023-05-08T02:15:54.930Z,4.57
2023-05-08T02:18:26.259Z,4.23
2023-05-08T02:20:56.605Z,4.23
2023-05-08T02:23:27.468Z,4.67
2023-05-08T02:25:56.649Z,4.43
2023-05-08T02:28:25.944Z,4.40
2023-05-08T02:30:54.611Z,4.57
2023-05-08T02:33:24.695Z,4.20
2023-05-08T02:35:53.298Z,5.10
2023-05-08T02:38:23.076Z,4.50
2023-05-08T02:40:54.778Z,4.50
2023-05-08T02:43:24.485Z,4.53
2023-05-08T02:46:00.664Z,4.30
2023-05-08T02:48:35.691Z,4.60
2023-05-08T02:51:10.826Z,4.80
2023-05-08T02:53:49.692Z,4.23
2023-05-08T02:56:26.574Z,4.40
2023-05-08T02:58:59.615Z,4.60
2023-05-08T03:01:33.141Z,4.57
2023-05-08T03:04:06.308Z,4.60
2023-05-08T03:06:38.861Z,5.17
2023-05-08T03:09:11.114Z,4.90
2023-05-08T03:11:42.047Z,5.37
2023-05-08T03:14:13.697Z,4.50
2023-05-08T03:16:44.950Z,4.70
2023-05-08T03:19:22.996Z,5.13
2023-05-08T03:21:53.215Z,4.97
2023-05-08T03:24:22.143Z,5.23
2023-05-08T03:26:51.023Z,5.20
2023-05-08T03:29:20.360Z,5.17
2023-05-08T03:31:50.195Z,5.17
2023-05-08T03:34:21.156Z,5.90
2023-05-08T03:36:50.265Z,5.50
2023-05-08T03:39:20.110Z,5.53
2023-05-08T03:41:49.698Z,5.70
2023-05-08T03:44:19.815Z,6.43
2023-05-08T03:46:50.886Z,5.60
2023-05-08T03:49:21.703Z,5.43
2023-05-08T03:51:50.609Z,5.57
2023-05-08T03:54:18.983Z,5.07
2023-05-08T03:56:48.394Z,5.80
2023-05-08T03:59:22.861Z,5.60
2023-05-08T04:01:56.696Z,5.93
2023-05-08T04:04:32.051Z,5.03
2023-05-08T04:07:05.305Z,4.90
2023-05-08T04:09:45.463Z,4.83
2023-05-08T04:12:19.479Z,5.00
2023-05-08T04:14:53.600Z,5.00
2023-05-08T04:17:30.328Z,5.37
2023-05-08T04:20:04.989Z,4.43
2023-05-08T04:22:35.009Z,3.63
2023-05-08T04:25:05.648Z,4.10
2023-05-08T04:27:34.632Z,3.30
2023-05-08T04:30:03.817Z,3.60
2023-05-08T04:32:35.335Z,3.00
2023-05-08T04:35:06.383Z,2.77
2023-05-08T04:37:35.261Z,2.90
2023-05-08T04:40:05.827Z,2.60
2023-05-08T04:42:36.748Z,2.90
2023-05-08T04:45:06.836Z,2.97
2023-05-08T04:47:35.524Z,2.93
2023-05-08T04:50:06.554Z,2.77
2023-05-08T04:52:36.581Z,2.90
2023-05-08T04:55:05.780Z,2.60
2023-05-08T04:57:37.033Z,2.50
2023-05-08T05:00:06.695Z,2.80
2023-05-08T05:02:39.369Z,2.80
2023-05-08T05:05:11.585Z,2.50
2023-05-08T05:07:41.598Z,2.80
2023-05-08T05:10:11.478Z,2.67
2023-05-08T05:12:40.218Z,3.03
2023-05-08T05:15:10.396Z,2.60
2023-05-08T05:17:40.098Z,3.10
2023-05-08T05:20:11.893Z,2.97
2023-05-08T05:22:40.556Z,3.10
2023-05-08T05:25:11.198Z,2.70
2023-05-08T05:27:40.458Z,2.87
2023-05-08T05:30:10.767Z,2.67
2023-05-08T05:32:39.927Z,2.87
2023-05-08T05:35:12.568Z,2.47
2023-05-08T05:37:42.432Z,2.93
2023-05-08T05:40:13.374Z,2.87
2023-05-08T05:42:42.535Z,2.97
2023-05-08T05:45:12.570Z,2.80
2023-05-08T05:47:46.264Z,2.83
2023-05-08T05:50:17.399Z,2.93
2023-05-08T05:52:47.115Z,2.60
2023-05-08T05:55:16.335Z,2.43
2023-05-08T05:57:45.518Z,2.80
2023-05-08T06:00:15.229Z,2.87
2023-05-08T06:02:47.565Z,3.07
2023-05-08T06:05:20.197Z,2.63
2023-05-08T06:07:48.881Z,2.63
2023-05-08T06:10:17.427Z,2.77
2023-05-08T06:12:46.163Z,2.70
2023-05-08T06:15:16.060Z,2.60
2023-05-08T06:17:47.240Z,2.80
2023-05-08T06:20:16.179Z,2.70
2023-05-08T06:22:46.528Z,3.00
2023-05-08T06:25:15.448Z,2.90
2023-05-08T06:27:44.421Z,2.97
2023-05-08T06:30:13.866Z,2.90
2023-05-08T06:32:42.439Z,2.60
2023-05-08T06:35:12.396Z,2.93
2023-05-08T06:37:41.473Z,3.00
2023-05-08T06:40:13.709Z,2.97
2023-05-08T06:42:42.834Z,2.73
2023-05-08T06:45:12.323Z,2.97
2023-05-08T06:47:41.317Z,3.07
2023-05-08T06:50:11.056Z,3.10
2023-05-08T06:52:40.249Z,2.90
2023-05-08T06:55:09.655Z,2.97
2023-05-08T06:57:39.597Z,3.00
2023-05-08T07:00:09.945Z,2.57
2023-05-08T07:02:38.985Z,2.67
2023-05-08T07:05:08.742Z,2.73
2023-05-08T07:07:37.542Z,2.60
2023-05-08T07:10:07.911Z,2.53
2023-05-08T07:12:36.839Z,2.53
2023-05-08T07:15:17.750Z,2.67
2023-05-08T07:17:53.941Z,2.63
2023-05-08T07:20:24.629Z,2.43
2023-05-08T07:22:53.544Z,2.47
2023-05-08T07:25:22.149Z,2.83
2023-05-08T07:27:50.732Z,2.47
2023-05-08T07:30:21.056Z,2.47
2023-05-08T07:32:49.473Z,3.10
2023-05-08T07:35:18.674Z,2.57
2023-05-08T07:37:47.201Z,2.67
2023-05-08T07:40:16.036Z,2.50
2023-05-08T07:42:45.682Z,2.10
2023-05-08T07:45:15.127Z,2.57
2023-05-08T07:47:52.445Z,2.37
2023-05-08T07:50:21.514Z,3.10
2023-05-08T07:52:50.920Z,2.50
2023-05-08T07:55:20.277Z,2.33
2023-05-08T07:57:48.915Z,2.30
2023-05-08T08:00:18.493Z,2.47
2023-05-08T08:02:47.344Z,2.33
2023-05-08T08:05:17.410Z,2.10
2023-05-08T08:07:46.169Z,2.40
2023-05-08T08:10:14.887Z,2.33
2023-05-08T08:12:43.780Z,2.57
2023-05-08T08:15:12.816Z,2.20
2023-05-08T08:17:41.487Z,2.40
2023-05-08T08:20:10.991Z,2.87
2023-05-08T08:22:40.851Z,2.50
2023-05-08T08:25:10.365Z,2.33
2023-05-08T08:27:39.656Z,2.60
2023-05-08T08:30:17.477Z,2.40
2023-05-08T08:32:46.742Z,2.67
2023-05-08T08:35:16.398Z,2.43
2023-05-08T08:37:47.336Z,2.70
2023-05-08T08:40:15.994Z,2.60
2023-05-08T08:42:44.773Z,3.03
2023-05-08T08:45:13.630Z,2.90
2023-05-08T08:47:46.591Z,2.57
2023-05-08T08:50:16.334Z,2.77
2023-05-08T08:52:50.039Z,2.30
2023-05-08T08:55:19.811Z,2.37
2023-05-08T08:57:57.265Z,2.20
2023-05-08T09:00:29.897Z,2.10
2023-05-08T09:02:59.022Z,2.40
2023-05-08T09:05:27.651Z,2.53
2023-05-08T09:07:57.816Z,2.07
2023-05-08T09:10:26.621Z,2.40
2023-05-08T09:12:55.208Z,2.50
2023-05-08T09:15:23.932Z,2.40
2023-05-08T09:17:52.363Z,2.33
2023-05-08T09:20:21.176Z,2.20
2023-05-08T09:22:50.806Z,2.73
2023-05-08T09:25:23.913Z,2.60
2023-05-08T09:27:52.451Z,2.30
2023-05-08T09:30:21.128Z,2.10
2023-05-08T09:32:50.040Z,2.63
2023-05-08T09:35:18.355Z,2.70
2023-05-08T09:37:47.633Z,2.63
2023-05-08T09:40:18.155Z,2.57
2023-05-08T09:42:48.621Z,2.80
2023-05-08T09:45:31.171Z,2.50
2023-05-08T09:48:00.323Z,2.83
2023-05-08T09:50:29.097Z,2.20
2023-05-08T09:52:57.779Z,2.77
2023-05-08T09:55:26.579Z,2.90
2023-05-08T09:57:58.529Z,2.93
2023-05-08T10:00:28.988Z,2.77
2023-05-08T10:02:59.474Z,2.60
2023-05-08T10:05:30.072Z,2.00
2023-05-08T10:07:59.253Z,2.27
2023-05-08T10:10:29.264Z,2.40
2023-05-08T10:12:59.933Z,2.53
2023-05-08T10:15:31.802Z,2.53
2023-05-08T10:18:06.188Z,2.20
2023-05-08T10:20:35.854Z,2.50
2023-05-08T10:23:06.061Z,2.53
2023-05-08T10:25:36.484Z,2.53
2023-05-08T10:28:17.729Z,2.67
2023-05-08T10:30:51.142Z,2.30
2023-05-08T10:33:22.940Z,3.03
2023-05-08T10:35:51.972Z,2.93
2023-05-08T10:38:20.998Z,2.50
2023-05-08T10:40:51.169Z,2.57
2023-05-08T10:43:21.487Z,2.30
2023-05-08T10:45:50.221Z,2.87
2023-05-08T10:48:25.385Z,2.67
2023-05-08T10:51:00.383Z,2.73
2023-05-08T10:53:36.068Z,2.23
2023-05-08T10:56:05.414Z,2.70
2023-05-08T10:58:35.907Z,2.60
2023-05-08T11:01:17.646Z,2.77
2023-05-08T11:03:51.628Z,2.53
2023-05-08T11:06:44.751Z,2.43
2023-05-08T11:09:20.112Z,2.50
2023-05-08T11:12:03.641Z,2.40
2023-05-08T11:14:35.128Z,2.43
2023-05-08T11:17:11.186Z,2.60
2023-05-08T11:19:40.185Z,2.53
2023-05-08T11:22:33.153Z,2.07
2023-05-08T11:25:03.960Z,2.43
2023-05-08T11:27:47.930Z,2.17
2023-05-08T11:30:26.241Z,2.40
2023-05-08T11:32:59.432Z,2.37
2023-05-08T11:35:49.451Z,2.03
2023-05-08T11:38:23.371Z,1.90
2023-05-08T11:40:59.878Z,2.27
2023-05-08T11:44:01.952Z,2.07
2023-05-08T11:46:40.576Z,2.00
2023-05-08T11:49:14.370Z,2.00
2023-05-08T11:51:45.566Z,2.00
2023-05-08T11:54:15.947Z,2.30
2023-05-08T11:56:47.564Z,2.30
2023-05-08T11:59:17.200Z,1.47
2023-05-08T12:02:06.988Z,1.70
2023-05-08T12:04:45.476Z,1.90
2023-05-08T12:07:14.170Z,2.10
2023-05-08T12:09:43.005Z,2.17
2023-05-08T12:12:11.572Z,2.17
2023-05-08T12:14:40.321Z,2.00
2023-05-08T12:17:11.248Z,2.07
2023-05-08T12:19:40.083Z,2.03
2023-05-08T12:22:10.154Z,1.97
2023-05-08T12:24:39.890Z,2.10
2023-05-08T12:27:08.992Z,2.13
2023-05-08T12:29:38.447Z,2.00
2023-05-08T12:32:07.300Z,1.97
2023-05-08T12:34:37.665Z,2.20
2023-05-08T12:37:06.167Z,1.70
2023-05-08T12:39:38.590Z,1.50
2023-05-08T12:42:07.456Z,1.80
2023-05-08T12:44:36.042Z,2.10
2023-05-08T12:47:06.896Z,2.20
2023-05-08T12:49:36.821Z,1.70
2023-05-08T12:52:06.936Z,2.00
2023-05-08T12:54:39.322Z,2.30
2023-05-08T12:57:12.202Z,2.30
2023-05-08T12:59:41.406Z,2.10
2023-05-08T13:02:17.925Z,1.80
2023-05-08T13:04:48.433Z,1.73
2023-05-08T13:07:17.368Z,2.17
2023-05-08T13:10:02.379Z,2.10
2023-05-08T13:12:31.061Z,2.13
2023-05-08T13:15:00.450Z,1.60
2023-05-08T13:17:29.029Z,1.70
2023-05-08T13:19:59.194Z,1.77
2023-05-08T13:22:27.609Z,1.80
2023-05-08T13:24:56.083Z,2.17
2023-05-08T13:27:24.610Z,2.00
2023-05-08T13:29:53.266Z,1.60
2023-05-08T13:32:22.283Z,2.17
2023-05-08T13:34:52.833Z,1.90
2023-05-08T13:37:25.174Z,2.30
2023-05-08T13:39:53.739Z,2.10
2023-05-08T13:42:22.318Z,2.77
2023-05-08T13:44:50.900Z,1.90
2023-05-08T13:47:19.487Z,1.90
2023-05-08T13:49:49.026Z,1.83
2023-05-08T13:52:17.457Z,1.80
2023-05-08T13:54:47.394Z,2.00
2023-05-08T13:57:16.049Z,2.13
2023-05-08T13:59:44.729Z,2.07
2023-05-08T14:02:14.199Z,1.93
2023-05-08T14:04:43.473Z,2.20
2023-05-08T14:07:12.144Z,2.00
2023-05-08T14:09:41.191Z,2.03
2023-05-08T14:12:11.263Z,2.00
2023-05-08T14:14:39.792Z,1.70
2023-05-08T14:17:08.700Z,1.90
2023-05-08T14:19:37.256Z,2.10
2023-05-08T14:22:07.022Z,2.00
2023-05-08T14:24:35.497Z,1.93
2023-05-08T14:27:06.092Z,2.67
2023-05-08T14:29:36.453Z,2.03
2023-05-08T14:32:06.288Z,2.10
2023-05-08T14:34:35.163Z,1.87
2023-05-08T14:37:03.796Z,1.70
2023-05-08T14:39:32.437Z,1.90
2023-05-08T14:42:18.262Z,2.07
2023-05-08T14:44:51.927Z,2.17
2023-05-08T14:47:21.045Z,1.87
2023-05-08T14:49:49.561Z,1.90
2023-05-08T14:52:18.056Z,1.90
2023-05-08T14:54:47.899Z,2.07
2023-05-08T14:57:16.655Z,1.90
2023-05-08T14:59:52.476Z,2.40
2023-05-08T15:02:25.275Z,1.93
2023-05-08T15:04:54.246Z,1.83
2023-05-08T15:07:22.950Z,2.03
2023-05-08T15:09:53.221Z,2.13
2023-05-08T15:12:21.723Z,1.90
2023-05-08T15:14:50.319Z,1.73
2023-05-08T15:17:19.075Z,2.13
2023-05-08T15:19:48.941Z,2.07
2023-05-08T15:22:18.048Z,1.70
2023-05-08T15:24:46.768Z,2.00
2023-05-08T15:27:15.404Z,2.40
2023-05-08T15:29:43.989Z,1.93
2023-05-08T15:32:12.457Z,1.90
2023-05-08T15:34:41.012Z,2.07
2023-05-08T15:37:10.894Z,1.90
2023-05-08T15:39:40.323Z,2.00
2023-05-08T15:42:08.821Z,2.03
2023-05-08T15:44:53.967Z,1.93
2023-05-08T15:47:23.955Z,2.17
2023-05-08T15:49:52.941Z,2.00
2023-05-08T15:52:22.874Z,1.97
2023-05-08T15:54:51.602Z,1.93
2023-05-08T15:57:20.253Z,1.70
2023-05-08T15:59:49.213Z,1.70
2023-05-08T16:02:17.804Z,2.10
2023-05-08T16:04:46.483Z,1.80
2023-05-08T16:07:15.025Z,2.10
2023-05-08T16:09:44.786Z,1.83
2023-05-08T16:12:13.408Z,1.70
2023-05-08T16:14:42.100Z,1.70
2023-05-08T16:17:10.816Z,1.93
2023-05-08T16:19:39.588Z,1.90
2023-05-08T16:22:08.223Z,1.97
2023-05-08T16:24:36.757Z,2.37
2023-05-08T16:27:06.764Z,1.80
2023-05-08T16:29:35.364Z,1.80
2023-05-08T16:32:03.707Z,2.00
2023-05-08T16:34:32.320Z,2.10
2023-05-08T16:37:00.824Z,1.73
2023-05-08T16:39:29.364Z,1.70
2023-05-08T16:41:57.906Z,1.90
2023-05-08T16:44:28.077Z,1.90
2023-05-08T16:46:56.711Z,1.90
2023-05-08T16:49:25.092Z,1.77
2023-05-08T16:51:53.675Z,1.77
2023-05-08T16:54:22.251Z,1.70
2023-05-08T16:56:50.680Z,2.17
2023-05-08T16:59:19.438Z,2.00
2023-05-08T17:01:49.236Z,1.60
2023-05-08T17:04:17.856Z,2.00
2023-05-08T17:06:46.689Z,1.90
2023-05-08T17:09:15.161Z,1.97
2023-05-08T17:11:43.762Z,1.60
2023-05-08T17:14:12.230Z,1.83
2023-05-08T17:16:40.768Z,1.80
2023-05-08T17:19:11.169Z,2.10
2023-05-08T17:21:39.732Z,1.90
2023-05-08T17:24:09.067Z,1.70
2023-05-08T17:26:41.325Z,1.93
2023-05-08T17:29:10.247Z,2.30
2023-05-08T17:31:38.972Z,1.70
2023-05-08T17:34:07.559Z,2.00
2023-05-08T17:36:37.322Z,1.60
2023-05-08T17:39:06.094Z,1.90
2023-05-08T17:41:34.539Z,2.10
2023-05-08T17:44:04.353Z,1.73
2023-05-08T17:46:32.904Z,1.90
2023-05-08T17:49:01.713Z,1.97
2023-05-08T17:51:31.149Z,2.13
2023-05-08T17:54:01.018Z,1.73
2023-05-08T17:56:31.159Z,2.20
2023-05-08T17:59:00.289Z,1.80
2023-05-08T18:01:29.653Z,1.90
2023-05-08T18:03:58.437Z,1.50
2023-05-08T18:06:27.144Z,1.50
2023-05-08T18:08:55.940Z,1.80
2023-05-08T18:11:26.828Z,1.97
2023-05-08T18:13:56.145Z,1.90
2023-05-08T18:16:24.768Z,1.60
2023-05-08T18:18:53.509Z,1.90
2023-05-08T18:21:22.617Z,1.90
2023-05-08T18:23:51.541Z,2.13
2023-05-08T18:26:21.762Z,1.80
2023-05-08T18:28:51.833Z,1.67
2023-05-08T18:31:20.261Z,2.00
2023-05-08T18:33:48.645Z,2.23
2023-05-08T18:36:17.200Z,1.60
2023-05-08T18:38:45.581Z,1.70
2023-05-08T18:41:14.464Z,1.57
2023-05-08T18:43:43.157Z,1.93
2023-05-08T18:46:14.319Z,1.67
2023-05-08T18:48:43.170Z,2.20
2023-05-08T18:51:11.914Z,1.60
2023-05-08T18:53:40.867Z,2.07
2023-05-08T18:56:11.590Z,1.90
2023-05-08T18:58:40.073Z,2.00
2023-05-08T19:01:09.181Z,1.83
2023-05-08T19:03:39.608Z,2.20
2023-05-08T19:06:08.327Z,1.90
2023-05-08T19:08:36.885Z,2.00
2023-05-08T19:11:05.909Z,2.30
2023-05-08T19:13:34.379Z,1.83
2023-05-08T19:16:03.057Z,1.90
2023-05-08T19:18:31.647Z,2.23
2023-05-08T19:21:02.774Z,1.90
2023-05-08T19:23:31.234Z,2.33
2023-05-08T19:25:59.852Z,1.90
2023-05-08T19:28:28.646Z,2.00
2023-05-08T19:30:57.189Z,2.20
2023-05-08T19:33:25.792Z,2.10
2023-05-08T19:35:54.556Z,1.83
2023-05-08T19:38:24.631Z,2.10
2023-05-08T19:40:57.559Z,2.03
2023-05-08T19:43:26.948Z,2.37
2023-05-08T19:45:56.526Z,2.10
2023-05-08T19:48:25.441Z,2.23
2023-05-08T19:50:55.079Z,2.50
2023-05-08T19:53:25.370Z,2.17
2023-05-08T19:55:54.639Z,2.27
2023-05-08T19:58:24.486Z,2.23
2023-05-08T20:00:53.638Z,2.47
2023-05-08T20:03:23.209Z,2.63
2023-05-08T20:05:54.518Z,2.33
2023-05-08T20:08:24.669Z,2.23
2023-05-08T20:10:53.196Z,2.40
2023-05-08T20:13:23.154Z,2.13
2023-05-08T20:15:53.969Z,2.27
2023-05-08T20:18:22.644Z,2.40
2023-05-08T20:20:51.337Z,1.93
2023-05-08T20:23:19.854Z,2.60
2023-05-08T20:25:49.944Z,2.03
2023-05-08T20:28:22.593Z,2.30
2023-05-08T20:30:51.181Z,2.67
2023-05-08T20:33:20.695Z,2.07
2023-05-08T20:35:49.615Z,2.10
2023-05-08T20:38:18.220Z,2.10
2023-05-08T20:40:46.742Z,2.40
2023-05-08T20:43:17.713Z,2.00
2023-05-08T20:45:46.651Z,2.03
2023-05-08T20:48:15.285Z,2.00
2023-05-08T20:50:43.935Z,2.10
2023-05-08T20:53:12.677Z,1.77
2023-05-08T20:55:41.380Z,2.37
2023-05-08T20:58:09.929Z,2.10
2023-05-08T21:00:40.065Z,2.10
2023-05-08T21:03:08.862Z,2.20
2023-05-08T21:05:37.413Z,2.10
2023-05-08T21:08:06.455Z,2.20
2023-05-08T21:10:35.265Z,2.60
2023-05-08T21:13:03.983Z,2.63
2023-05-08T21:15:32.728Z,2.23
2023-05-08T21:18:02.839Z,2.40
2023-05-08T21:20:32.980Z,2.37
2023-05-08T21:23:01.881Z,2.30
2023-05-08T21:25:30.781Z,2.40
2023-05-08T21:27:59.512Z,2.20
2023-05-08T21:30:28.062Z,2.23
2023-05-08T21:32:58.779Z,2.60
2023-05-08T21:35:28.938Z,2.70
2023-05-08T21:37:57.455Z,2.43
2023-05-08T21:40:26.051Z,3.00
2023-05-08T21:42:54.539Z,2.20
2023-05-08T21:45:23.763Z,2.40
2023-05-08T21:47:52.258Z,2.50
2023-05-08T21:50:21.094Z,2.47
2023-05-08T21:52:51.374Z,2.20
2023-05-08T21:55:20.108Z,2.73
2023-05-08T21:57:48.878Z,2.53
2023-05-08T22:00:18.148Z,2.70
2023-05-08T22:02:49.234Z,2.83
2023-05-08T22:05:17.789Z,2.50
2023-05-08T22:07:46.415Z,2.43
2023-05-08T22:10:16.416Z,2.67
2023-05-08T22:12:45.134Z,2.13
2023-05-08T22:15:28.544Z,2.20
2023-05-08T22:17:58.138Z,2.27
2023-05-08T22:20:27.243Z,2.67
2023-05-08T22:22:55.987Z,2.70
2023-05-08T22:25:26.906Z,2.80
2023-05-08T22:27:55.544Z,2.77
2023-05-08T22:30:24.176Z,2.60
2023-05-08T22:32:57.177Z,2.53
2023-05-08T22:35:27.355Z,2.93
2023-05-08T22:37:57.353Z,2.77
2023-05-08T22:40:27.892Z,2.87
2023-05-08T22:42:58.893Z,2.33
2023-05-08T22:45:28.144Z,2.57
2023-05-08T22:47:57.226Z,2.70
2023-05-08T22:50:33.958Z,2.47
2023-05-08T22:53:03.966Z,2.50
2023-05-08T22:55:34.060Z,2.83
2023-05-08T22:58:02.740Z,2.83
2023-05-08T23:00:31.628Z,3.20
2023-05-08T23:03:00.297Z,2.73
2023-05-08T23:05:28.874Z,2.60
2023-05-08T23:07:57.637Z,3.00
2023-05-08T23:10:26.477Z,3.07
2023-05-08T23:12:56.574Z,2.50
2023-05-08T23:15:25.277Z,2.77
2023-05-08T23:17:53.837Z,3.20
2023-05-08T23:20:22.303Z,3.10
2023-05-08T23:22:50.832Z,3.27
2023-05-08T23:25:19.433Z,3.20
2023-05-08T23:27:48.023Z,3.30
2023-05-08T23:30:18.091Z,2.80
2023-05-08T23:32:46.704Z,2.90
2023-05-08T23:35:16.252Z,3.10
2023-05-08T23:37:45.098Z,3.43
2023-05-08T23:40:14.121Z,3.23
2023-05-08T23:42:42.979Z,3.53
2023-05-08T23:45:12.681Z,3.30
2023-05-08T23:47:43.093Z,3.40
2023-05-08T23:50:12.821Z,3.50
2023-05-08T23:52:42.044Z,3.47
2023-05-08T23:55:11.480Z,3.33
2023-05-08T23:57:40.066Z,3.60
